sensor_id;sensor_type;location;lat;lon;timestamp;pressure;altitude;pressure_sealevel;temperature;humidity
32733;BME280;11867;51.198;11.966;2023-02-11T00:00:08;102190.81;;;3.52;80.40
32733;BME280;11867;51.198;11.966;2023-02-11T00:01:15;102198.53;;;3.40;80.55
32733;BME280;11867;51.198;11.966;2023-02-11T00:02:20;102191.28;;;3.41;80.41
32733;BME280;11867;51.198;11.966;2023-02-11T00:03:24;102191.28;;;3.56;80.01
32733;BME280;11867;51.198;11.966;2023-02-11T00:04:27;102186.97;;;3.76;79.29
32733;BME280;11867;51.198;11.966;2023-02-11T00:05:29;102182.47;;;3.83;78.62
32733;BME280;11867;51.198;11.966;2023-02-11T00:06:32;102182.91;;;3.87;78.00
32733;BME280;11867;51.198;11.966;2023-02-11T00:07:35;102178.53;;;3.35;79.80
32733;BME280;11867;51.198;11.966;2023-02-11T00:08:38;102177.50;;;3.51;79.48
32733;BME280;11867;51.198;11.966;2023-02-11T00:09:40;102175.13;;;3.26;80.64
32733;BME280;11867;51.198;11.966;2023-02-11T00:10:44;102169.56;;;3.13;81.38
32733;BME280;11867;51.198;11.966;2023-02-11T00:11:46;102168.06;;;3.25;81.31
32733;BME280;11867;51.198;11.966;2023-02-11T00:12:49;102174.09;;;3.42;81.23
32733;BME280;11867;51.198;11.966;2023-02-11T00:13:51;102154.84;;;3.30;80.90
32733;BME280;11867;51.198;11.966;2023-02-11T00:14:53;102161.84;;;3.25;80.82
32733;BME280;11867;51.198;11.966;2023-02-11T00:15:55;102161.47;;;3.28;81.62
32733;BME280;11867;51.198;11.966;2023-02-11T00:16:58;102163.22;;;3.35;80.97
32733;BME280;11867;51.198;11.966;2023-02-11T00:18:01;102164.97;;;3.28;80.94
32733;BME280;11867;51.198;11.966;2023-02-11T00:19:02;102145.09;;;2.99;82.18
32733;BME280;11867;51.198;11.966;2023-02-11T00:20:07;102152.19;;;3.00;82.32
32733;BME280;11867;51.198;11.966;2023-02-11T00:21:10;102137.56;;;3.10;82.33
32733;BME280;11867;51.198;11.966;2023-02-11T00:22:13;102137.13;;;3.06;82.37
32733;BME280;11867;51.198;11.966;2023-02-11T00:23:15;102140.16;;;3.18;81.94
32733;BME280;11867;51.198;11.966;2023-02-11T00:24:17;102139.34;;;3.17;81.68
32733;BME280;11867;51.198;11.966;2023-02-11T00:25:19;102133.22;;;3.09;82.09
32733;BME280;11867;51.198;11.966;2023-02-11T00:26:25;102124.47;;;3.21;82.13
32733;BME280;11867;51.198;11.966;2023-02-11T00:27:27;102114.75;;;3.42;81.77
32733;BME280;11867;51.198;11.966;2023-02-11T00:28:30;102109.84;;;3.46;80.61
32733;BME280;11867;51.198;11.966;2023-02-11T00:29:31;102118.91;;;3.23;81.53
32733;BME280;11867;51.198;11.966;2023-02-11T00:30:34;102119.25;;;3.20;81.32
32733;BME280;11867;51.198;11.966;2023-02-11T00:31:37;102100.94;;;3.30;80.89
32733;BME280;11867;51.198;11.966;2023-02-11T00:32:39;102119.72;;;3.23;80.93
32733;BME280;11867;51.198;11.966;2023-02-11T00:33:43;102117.19;;;3.37;80.89
32733;BME280;11867;51.198;11.966;2023-02-11T00:34:45;102113.75;;;3.28;80.91
32733;BME280;11867;51.198;11.966;2023-02-11T00:35:47;102121.28;;;3.48;80.82
32733;BME280;11867;51.198;11.966;2023-02-11T00:36:50;102118.78;;;3.68;80.37
32733;BME280;11867;51.198;11.966;2023-02-11T00:37:52;102117.69;;;3.83;79.97
32733;BME280;11867;51.198;11.966;2023-02-11T00:38:55;102113.59;;;3.88;79.41
32733;BME280;11867;51.198;11.966;2023-02-11T00:39:57;102113.53;;;3.81;79.06
32733;BME280;11867;51.198;11.966;2023-02-11T00:41:00;102115.28;;;3.89;78.77
32733;BME280;11867;51.198;11.966;2023-02-11T00:42:03;102124.31;;;3.81;78.99
32733;BME280;11867;51.198;11.966;2023-02-11T00:43:07;102124.31;;;3.81;78.93
32733;BME280;11867;51.198;11.966;2023-02-11T00:44:09;102093.84;;;3.66;79.00
32733;BME280;11867;51.198;11.966;2023-02-11T00:45:11;102113.59;;;3.66;79.47
32733;BME280;11867;51.198;11.966;2023-02-11T00:46:14;102115.78;;;3.77;79.85
32733;BME280;11867;51.198;11.966;2023-02-11T00:47:17;102100.09;;;3.66;79.50
32733;BME280;11867;51.198;11.966;2023-02-11T00:48:21;102115.84;;;3.84;79.69
32733;BME280;11867;51.198;11.966;2023-02-11T00:49:23;102103.63;;;3.88;79.29
32733;BME280;11867;51.198;11.966;2023-02-11T00:50:25;102110.31;;;3.92;78.98
32733;BME280;11867;51.198;11.966;2023-02-11T00:51:28;102116.63;;;3.99;78.87
32733;BME280;11867;51.198;11.966;2023-02-11T00:52:30;102109.25;;;3.87;78.99
32733;BME280;11867;51.198;11.966;2023-02-11T00:53:33;102115.41;;;3.80;79.18
32733;BME280;11867;51.198;11.966;2023-02-11T00:54:35;102113.59;;;3.88;79.39
32733;BME280;11867;51.198;11.966;2023-02-11T00:55:40;102120.38;;;4.05;79.07
32733;BME280;11867;51.198;11.966;2023-02-11T00:56:41;102116.56;;;3.93;78.85
32733;BME280;11867;51.198;11.966;2023-02-11T00:57:45;102110.66;;;3.82;79.45
32733;BME280;11867;51.198;11.966;2023-02-11T00:58:47;102117.81;;;3.75;79.61
32733;BME280;11867;51.198;11.966;2023-02-11T00:59:49;102123.53;;;3.29;81.34
32733;BME280;11867;51.198;11.966;2023-02-11T01:00:52;102117.59;;;3.55;81.41
32733;BME280;11867;51.198;11.966;2023-02-11T01:01:55;102118.25;;;3.57;81.18
32733;BME280;11867;51.198;11.966;2023-02-11T01:02:56;102096.66;;;3.57;80.98
32733;BME280;11867;51.198;11.966;2023-02-11T01:03:59;102107.09;;;3.60;80.69
32733;BME280;11867;51.198;11.966;2023-02-11T01:05:01;102123.50;;;3.80;80.63
32733;BME280;11867;51.198;11.966;2023-02-11T01:06:04;102108.72;;;3.76;80.18
32733;BME280;11867;51.198;11.966;2023-02-11T01:07:06;102119.44;;;3.91;80.14
32733;BME280;11867;51.198;11.966;2023-02-11T01:08:08;102115.75;;;3.99;79.56
32733;BME280;11867;51.198;11.966;2023-02-11T01:09:10;102106.34;;;4.10;79.41
32733;BME280;11867;51.198;11.966;2023-02-11T01:10:13;102111.06;;;3.86;79.51
32733;BME280;11867;51.198;11.966;2023-02-11T01:11:16;102097.28;;;3.96;79.35
32733;BME280;11867;51.198;11.966;2023-02-11T01:12:19;102098.41;;;4.08;79.09
32733;BME280;11867;51.198;11.966;2023-02-11T01:13:23;102100.22;;;4.22;78.69
32733;BME280;11867;51.198;11.966;2023-02-11T01:14:26;102095.59;;;4.16;78.67
32733;BME280;11867;51.198;11.966;2023-02-11T01:15:29;102080.03;;;3.97;79.14
32733;BME280;11867;51.198;11.966;2023-02-11T01:16:31;102079.59;;;3.72;80.19
32733;BME280;11867;51.198;11.966;2023-02-11T01:17:33;102082.78;;;3.39;80.84
32733;BME280;11867;51.198;11.966;2023-02-11T01:18:35;102073.69;;;3.61;81.30
32733;BME280;11867;51.198;11.966;2023-02-11T01:19:40;102059.16;;;3.41;81.45
32733;BME280;11867;51.198;11.966;2023-02-11T01:20:42;102068.22;;;3.33;81.73
32733;BME280;11867;51.198;11.966;2023-02-11T01:21:45;102055.75;;;3.32;82.66
32733;BME280;11867;51.198;11.966;2023-02-11T01:22:46;102058.50;;;3.39;82.42
32733;BME280;11867;51.198;11.966;2023-02-11T01:23:49;102042.81;;;3.06;82.71
32733;BME280;11867;51.198;11.966;2023-02-11T01:24:51;102040.31;;;3.05;82.84
32733;BME280;11867;51.198;11.966;2023-02-11T01:25:54;102056.56;;;2.96;84.01
32733;BME280;11867;51.198;11.966;2023-02-11T01:26:56;102053.38;;;3.08;84.07
32733;BME280;11867;51.198;11.966;2023-02-11T01:27:59;102049.28;;;3.27;83.63
32733;BME280;11867;51.198;11.966;2023-02-11T01:29:02;102052.72;;;3.20;83.04
32733;BME280;11867;51.198;11.966;2023-02-11T01:30:07;102058.19;;;3.27;83.16
32733;BME280;11867;51.198;11.966;2023-02-11T01:31:09;102039.72;;;3.46;82.21
32733;BME280;11867;51.198;11.966;2023-02-11T01:32:12;102050.13;;;3.49;82.61
32733;BME280;11867;51.198;11.966;2023-02-11T01:33:14;102029.78;;;3.10;83.31
32733;BME280;11867;51.198;11.966;2023-02-11T01:34:16;102041.09;;;3.20;83.74
32733;BME280;11867;51.198;11.966;2023-02-11T01:35:18;102041.63;;;2.94;84.34
32733;BME280;11867;51.198;11.966;2023-02-11T01:36:21;102046.97;;;3.09;84.16
32733;BME280;11867;51.198;11.966;2023-02-11T01:37:22;102043.03;;;3.26;83.69
32733;BME280;11867;51.198;11.966;2023-02-11T01:38:25;102052.69;;;3.35;83.02
32733;BME280;11867;51.198;11.966;2023-02-11T01:39:27;102047.66;;;3.32;83.19
32733;BME280;11867;51.198;11.966;2023-02-11T01:40:30;102061.94;;;3.48;83.17
32733;BME280;11867;51.198;11.966;2023-02-11T01:41:32;102049.16;;;3.56;82.44
32733;BME280;11867;51.198;11.966;2023-02-11T01:42:34;102057.63;;;3.53;82.40
32733;BME280;11867;51.198;11.966;2023-02-11T01:43:38;102051.41;;;3.53;82.06
32733;BME280;11867;51.198;11.966;2023-02-11T01:44:43;102037.50;;;3.34;83.02
32733;BME280;11867;51.198;11.966;2023-02-11T01:46:00;102039.25;;;3.06;83.91
32733;BME280;11867;51.198;11.966;2023-02-11T01:47:04;102038.47;;;2.90;85.23
32733;BME280;11867;51.198;11.966;2023-02-11T01:48:10;102023.84;;;2.99;85.47
32733;BME280;11867;51.198;11.966;2023-02-11T01:49:15;102040.66;;;3.16;84.49
32733;BME280;11867;51.198;11.966;2023-02-11T01:50:19;102041.81;;;3.29;84.60
32733;BME280;11867;51.198;11.966;2023-02-11T01:51:23;102048.09;;;3.14;84.42
32733;BME280;11867;51.198;11.966;2023-02-11T01:52:28;102040.72;;;3.23;84.33
32733;BME280;11867;51.198;11.966;2023-02-11T01:53:32;102019.59;;;2.90;85.01
32733;BME280;11867;51.198;11.966;2023-02-11T01:54:53;102035.94;;;2.89;86.04
32733;BME280;11867;51.198;11.966;2023-02-11T01:56:14;102037.44;;;2.91;86.15
32733;BME280;11867;51.198;11.966;2023-02-11T01:57:36;102037.59;;;3.05;85.93
32733;BME280;11867;51.198;11.966;2023-02-11T01:58:42;102044.81;;;3.19;85.05
32733;BME280;11867;51.198;11.966;2023-02-11T01:59:53;102039.31;;;3.27;84.42
32733;BME280;11867;51.198;11.966;2023-02-11T02:00:59;102043.19;;;3.61;83.67
32733;BME280;11867;51.198;11.966;2023-02-11T02:02:07;102044.28;;;3.67;82.90
32733;BME280;11867;51.198;11.966;2023-02-11T02:03:13;102034.75;;;3.28;83.91
32733;BME280;11867;51.198;11.966;2023-02-11T02:04:17;102047.28;;;3.35;84.21
32733;BME280;11867;51.198;11.966;2023-02-11T02:05:27;102043.72;;;3.13;84.57
32733;BME280;11867;51.198;11.966;2023-02-11T02:06:34;102039.91;;;3.44;84.18
32733;BME280;11867;51.198;11.966;2023-02-11T02:07:42;102042.31;;;3.39;83.81
32733;BME280;11867;51.198;11.966;2023-02-11T02:08:52;102052.97;;;3.62;83.20
32733;BME280;11867;51.198;11.966;2023-02-11T02:10:01;102055.47;;;3.85;82.22
32733;BME280;11867;51.198;11.966;2023-02-11T02:11:05;102058.88;;;3.72;82.34
32733;BME280;11867;51.198;11.966;2023-02-11T02:12:07;102064.41;;;3.64;82.53
32733;BME280;11867;51.198;11.966;2023-02-11T02:13:10;102058.66;;;3.74;82.69
32733;BME280;11867;51.198;11.966;2023-02-11T02:14:12;102047.34;;;3.63;82.65
32733;BME280;11867;51.198;11.966;2023-02-11T02:15:22;102049.63;;;3.60;82.85
32733;BME280;11867;51.198;11.966;2023-02-11T02:16:29;102040.72;;;3.44;83.74
32733;BME280;11867;51.198;11.966;2023-02-11T02:17:41;102033.28;;;3.25;84.35
32733;BME280;11867;51.198;11.966;2023-02-11T02:18:51;102040.50;;;3.39;84.08
32733;BME280;11867;51.198;11.966;2023-02-11T02:20:10;102041.91;;;3.57;83.95
32733;BME280;11867;51.198;11.966;2023-02-11T02:21:43;102047.53;;;3.83;83.29
32733;BME280;11867;51.198;11.966;2023-02-11T02:23:12;102046.13;;;3.88;82.50
32733;BME280;11867;51.198;11.966;2023-02-11T02:24:40;102043.25;;;3.89;82.43
32733;BME280;11867;51.198;11.966;2023-02-11T02:26:13;102040.16;;;3.92;82.52
32733;BME280;11867;51.198;11.966;2023-02-11T02:27:28;102044.03;;;4.11;81.80
32733;BME280;11867;51.198;11.966;2023-02-11T02:28:57;102031.75;;;3.80;82.10
32733;BME280;11867;51.198;11.966;2023-02-11T02:33:24;102039.09;;;4.15;81.78
32733;BME280;11867;51.198;11.966;2023-02-11T02:34:34;102033.78;;;4.28;81.53
32733;BME280;11867;51.198;11.966;2023-02-11T02:35:42;102045.28;;;4.37;80.54
32733;BME280;11867;51.198;11.966;2023-02-11T02:36:54;102035.59;;;4.49;80.26
32733;BME280;11867;51.198;11.966;2023-02-11T02:38:03;102035.69;;;4.69;79.73
32733;BME280;11867;51.198;11.966;2023-02-11T02:39:13;102037.94;;;4.59;79.78
32733;BME280;11867;51.198;11.966;2023-02-11T02:40:20;102026.38;;;4.37;79.73
32733;BME280;11867;51.198;11.966;2023-02-11T02:41:27;102033.91;;;4.48;79.73
32733;BME280;11867;51.198;11.966;2023-02-11T02:42:32;102027.50;;;4.56;79.25
32733;BME280;11867;51.198;11.966;2023-02-11T02:43:38;102023.38;;;4.60;79.47
32733;BME280;11867;51.198;11.966;2023-02-11T02:44:47;102020.97;;;4.37;79.74
32733;BME280;11867;51.198;11.966;2023-02-11T02:45:49;102005.16;;;4.34;80.23
32733;BME280;11867;51.198;11.966;2023-02-11T02:46:51;102006.47;;;4.44;80.73
32733;BME280;11867;51.198;11.966;2023-02-11T02:47:54;102006.00;;;4.34;80.61
32733;BME280;11867;51.198;11.966;2023-02-11T02:48:58;102006.03;;;4.41;80.29
32733;BME280;11867;51.198;11.966;2023-02-11T02:50:02;102007.81;;;4.62;80.23
32733;BME280;11867;51.198;11.966;2023-02-11T02:51:12;101998.94;;;4.75;79.96
32733;BME280;11867;51.198;11.966;2023-02-11T02:52:24;101992.44;;;4.69;79.75
32733;BME280;11867;51.198;11.966;2023-02-11T02:53:39;101979.03;;;4.41;80.61
32733;BME280;11867;51.198;11.966;2023-02-11T02:55:03;101974.47;;;4.48;80.90
32733;BME280;11867;51.198;11.966;2023-02-11T02:56:11;101978.19;;;4.40;80.73
32733;BME280;11867;51.198;11.966;2023-02-11T02:57:27;101971.91;;;4.33;81.33
32733;BME280;11867;51.198;11.966;2023-02-11T02:58:43;101985.28;;;4.48;80.94
32733;BME280;11867;51.198;11.966;2023-02-11T03:00:04;101975.97;;;4.51;80.94
32733;BME280;11867;51.198;11.966;2023-02-11T03:01:13;101982.84;;;4.53;80.27
32733;BME280;11867;51.198;11.966;2023-02-11T03:02:25;101980.97;;;4.60;80.82
32733;BME280;11867;51.198;11.966;2023-02-11T03:03:34;101977.47;;;4.67;80.51
32733;BME280;11867;51.198;11.966;2023-02-11T03:04:48;102004.56;;;4.80;80.30
32733;BME280;11867;51.198;11.966;2023-02-11T03:05:57;102006.81;;;4.70;80.01
32733;BME280;11867;51.198;11.966;2023-02-11T03:07:06;101992.19;;;4.57;80.59
32733;BME280;11867;51.198;11.966;2023-02-11T03:08:16;101991.81;;;4.25;81.36
32733;BME280;11867;51.198;11.966;2023-02-11T03:09:24;102006.31;;;4.18;82.69
32733;BME280;11867;51.198;11.966;2023-02-11T03:10:30;102001.06;;;4.44;81.93
32733;BME280;11867;51.198;11.966;2023-02-11T03:11:34;101993.25;;;4.63;81.46
32733;BME280;11867;51.198;11.966;2023-02-11T03:12:38;101997.13;;;4.89;80.49
32733;BME280;11867;51.198;11.966;2023-02-11T03:13:44;101990.63;;;4.76;80.18
32733;BME280;11867;51.198;11.966;2023-02-11T03:14:48;101992.91;;;4.79;79.99
32733;BME280;11867;51.198;11.966;2023-02-11T03:15:54;101983.16;;;4.85;79.71
32733;BME280;11867;51.198;11.966;2023-02-11T03:17:00;101984.66;;;4.94;79.51
32733;BME280;11867;51.198;11.966;2023-02-11T03:18:05;101982.31;;;4.78;79.92
32733;BME280;11867;51.198;11.966;2023-02-11T03:19:11;101986.16;;;4.55;80.07
32733;BME280;11867;51.198;11.966;2023-02-11T03:20:18;101974.44;;;4.07;81.40
32733;BME280;11867;51.198;11.966;2023-02-11T03:21:21;101987.59;;;4.16;82.07
32733;BME280;11867;51.198;11.966;2023-02-11T03:22:28;101986.84;;;4.29;82.35
32733;BME280;11867;51.198;11.966;2023-02-11T03:23:35;101965.69;;;4.33;81.77
32733;BME280;11867;51.198;11.966;2023-02-11T03:24:40;101980.84;;;4.34;81.66
32733;BME280;11867;51.198;11.966;2023-02-11T03:25:46;101984.50;;;4.19;82.06
32733;BME280;11867;51.198;11.966;2023-02-11T03:26:53;101966.66;;;4.25;82.31
32733;BME280;11867;51.198;11.966;2023-02-11T03:28:04;101982.09;;;4.31;81.70
32733;BME280;11867;51.198;11.966;2023-02-11T03:29:14;101984.25;;;4.14;82.24
32733;BME280;11867;51.198;11.966;2023-02-11T03:30:20;101967.16;;;4.07;82.65
32733;BME280;11867;51.198;11.966;2023-02-11T03:31:28;101975.50;;;4.06;82.47
32733;BME280;11867;51.198;11.966;2023-02-11T03:32:34;101970.50;;;4.09;82.66
32733;BME280;11867;51.198;11.966;2023-02-11T03:33:41;101966.88;;;4.23;82.38
32733;BME280;11867;51.198;11.966;2023-02-11T03:34:48;101956.31;;;4.29;81.98
32733;BME280;11867;51.198;11.966;2023-02-11T03:35:57;101976.03;;;4.29;81.52
32733;BME280;11867;51.198;11.966;2023-02-11T03:37:04;101966.34;;;4.41;81.83
32733;BME280;11867;51.198;11.966;2023-02-11T03:38:11;101963.03;;;4.46;81.09
32733;BME280;11867;51.198;11.966;2023-02-11T03:39:18;101977.31;;;4.33;81.38
32733;BME280;11867;51.198;11.966;2023-02-11T03:40:25;101980.00;;;4.33;81.54
32733;BME280;11867;51.198;11.966;2023-02-11T03:41:27;101966.81;;;4.17;81.99
32733;BME280;11867;51.198;11.966;2023-02-11T03:42:35;101968.53;;;4.24;81.96
32733;BME280;11867;51.198;11.966;2023-02-11T03:43:42;101986.13;;;4.49;81.73
32733;BME280;11867;51.198;11.966;2023-02-11T03:44:49;101990.91;;;4.47;81.23
32733;BME280;11867;51.198;11.966;2023-02-11T03:45:54;101981.38;;;4.51;80.99
32733;BME280;11867;51.198;11.966;2023-02-11T03:46:58;101973.38;;;4.36;81.03
32733;BME280;11867;51.198;11.966;2023-02-11T03:48:05;101989.63;;;4.42;81.31
32733;BME280;11867;51.198;11.966;2023-02-11T03:49:11;101973.31;;;4.22;81.72
32733;BME280;11867;51.198;11.966;2023-02-11T03:50:14;101970.59;;;4.22;81.87
32733;BME280;11867;51.198;11.966;2023-02-11T03:51:19;101970.16;;;4.19;82.04
32733;BME280;11867;51.198;11.966;2023-02-11T03:52:23;101978.41;;;4.39;81.93
32733;BME280;11867;51.198;11.966;2023-02-11T03:53:27;101981.94;;;4.46;81.33
32733;BME280;11867;51.198;11.966;2023-02-11T03:54:30;101979.66;;;4.43;81.40
32733;BME280;11867;51.198;11.966;2023-02-11T03:55:35;101988.63;;;4.50;81.50
32733;BME280;11867;51.198;11.966;2023-02-11T03:56:41;101980.13;;;4.53;81.13
32733;BME280;11867;51.198;11.966;2023-02-11T03:57:46;101969.94;;;4.49;81.42
32733;BME280;11867;51.198;11.966;2023-02-11T03:58:48;101983.34;;;4.77;80.74
32733;BME280;11867;51.198;11.966;2023-02-11T03:59:52;101987.72;;;4.78;80.42
32733;BME280;11867;51.198;11.966;2023-02-11T04:00:55;101982.66;;;4.61;80.47
32733;BME280;11867;51.198;11.966;2023-02-11T04:01:58;101985.28;;;4.48;81.22
32733;BME280;11867;51.198;11.966;2023-02-11T04:03:00;101980.84;;;4.34;81.37
32733;BME280;11867;51.198;11.966;2023-02-11T04:04:03;101982.34;;;4.36;81.77
32733;BME280;11867;51.198;11.966;2023-02-11T04:05:06;101986.09;;;4.42;81.45
32733;BME280;11867;51.198;11.966;2023-02-11T04:06:09;101987.03;;;4.62;81.17
32733;BME280;11867;51.198;11.966;2023-02-11T04:07:12;101976.28;;;4.76;80.46
32733;BME280;11867;51.198;11.966;2023-02-11T04:08:14;101979.47;;;4.93;80.16
32733;BME280;11867;51.198;11.966;2023-02-11T04:09:16;101979.03;;;4.89;79.82
32733;BME280;11867;51.198;11.966;2023-02-11T04:10:19;101978.38;;;4.80;79.97
32733;BME280;11867;51.198;11.966;2023-02-11T04:11:20;101974.31;;;4.56;80.53
32733;BME280;11867;51.198;11.966;2023-02-11T04:12:23;101980.56;;;4.57;80.71
32733;BME280;11867;51.198;11.966;2023-02-11T04:13:25;101977.34;;;4.40;81.09
32733;BME280;11867;51.198;11.966;2023-02-11T04:14:28;101977.91;;;4.29;81.71
32733;BME280;11867;51.198;11.966;2023-02-11T04:15:30;101992.63;;;4.61;81.10
32733;BME280;11867;51.198;11.966;2023-02-11T04:16:32;101986.63;;;4.65;80.54
32733;BME280;11867;51.198;11.966;2023-02-11T04:17:34;101996.59;;;4.65;80.75
32733;BME280;11867;51.198;11.966;2023-02-11T04:18:37;101993.00;;;4.51;81.12
32733;BME280;11867;51.198;11.966;2023-02-11T04:19:38;101996.31;;;4.47;81.13
32733;BME280;11867;51.198;11.966;2023-02-11T04:20:41;101991.13;;;4.52;80.91
32733;BME280;11867;51.198;11.966;2023-02-11T04:21:43;102000.06;;;4.52;81.18
32733;BME280;11867;51.198;11.966;2023-02-11T04:22:47;101988.38;;;4.38;81.08
32733;BME280;11867;51.198;11.966;2023-02-11T04:23:48;101993.31;;;4.35;81.94
32733;BME280;11867;51.198;11.966;2023-02-11T04:24:51;101990.66;;;4.41;81.43
32733;BME280;11867;51.198;11.966;2023-02-11T04:25:52;101999.00;;;4.47;82.13
32733;BME280;11867;51.198;11.966;2023-02-11T04:26:57;102001.44;;;4.76;81.29
32733;BME280;11867;51.198;11.966;2023-02-11T04:27:59;101987.50;;;4.79;80.45
32733;BME280;11867;51.198;11.966;2023-02-11T04:29:02;101982.97;;;4.80;80.85
32733;BME280;11867;51.198;11.966;2023-02-11T04:30:05;101990.03;;;4.88;80.00
32733;BME280;11867;51.198;11.966;2023-02-11T04:31:08;101984.81;;;4.79;80.23
32733;BME280;11867;51.198;11.966;2023-02-11T04:32:12;101973.00;;;4.94;79.82
32733;BME280;11867;51.198;11.966;2023-02-11T04:33:15;101975.50;;;4.95;79.86
32733;BME280;11867;51.198;11.966;2023-02-11T04:34:17;101987.59;;;4.99;79.76
32733;BME280;11867;51.198;11.966;2023-02-11T04:35:20;101978.84;;;4.97;79.75
32733;BME280;11867;51.198;11.966;2023-02-11T04:36:22;101968.84;;;4.98;79.43
32733;BME280;11867;51.198;11.966;2023-02-11T04:37:25;101993.00;;;5.06;79.62
32733;BME280;11867;51.198;11.966;2023-02-11T04:38:32;101972.25;;;5.20;78.99
32733;BME280;11867;51.198;11.966;2023-02-11T04:39:35;101980.38;;;5.26;78.53
32733;BME280;11867;51.198;11.966;2023-02-11T04:40:36;101969.28;;;4.88;79.37
32733;BME280;11867;51.198;11.966;2023-02-11T04:41:40;101978.47;;;5.00;80.03
32733;BME280;11867;51.198;11.966;2023-02-11T04:42:42;101977.78;;;4.92;79.86
32733;BME280;11867;51.198;11.966;2023-02-11T04:43:44;101982.50;;;4.76;80.05
32733;BME280;11867;51.198;11.966;2023-02-11T04:44:46;101978.34;;;4.74;81.05
32733;BME280;11867;51.198;11.966;2023-02-11T04:45:49;101960.91;;;4.83;80.64
32733;BME280;11867;51.198;11.966;2023-02-11T04:46:51;101957.59;;;4.81;80.40
32733;BME280;11867;51.198;11.966;2023-02-11T04:47:53;101965.06;;;4.79;80.67
32733;BME280;11867;51.198;11.966;2023-02-11T04:48:55;101966.31;;;4.83;80.80
32733;BME280;11867;51.198;11.966;2023-02-11T04:49:58;101966.97;;;4.92;80.34
32733;BME280;11867;51.198;11.966;2023-02-11T04:51:00;101963.88;;;4.88;80.71
32733;BME280;11867;51.198;11.966;2023-02-11T04:52:02;101955.06;;;4.73;81.02
32733;BME280;11867;51.198;11.966;2023-02-11T04:53:04;101941.53;;;4.73;81.02
32733;BME280;11867;51.198;11.966;2023-02-11T04:54:08;101952.56;;;4.71;81.20
32733;BME280;11867;51.198;11.966;2023-02-11T04:55:10;101945.06;;;4.73;81.18
32733;BME280;11867;51.198;11.966;2023-02-11T04:56:13;101942.19;;;4.81;80.81
32733;BME280;11867;51.198;11.966;2023-02-11T04:57:15;101944.94;;;4.88;81.24
32733;BME280;11867;51.198;11.966;2023-02-11T04:58:18;101949.09;;;4.84;80.91
32733;BME280;11867;51.198;11.966;2023-02-11T04:59:20;101952.97;;;4.68;81.53
32733;BME280;11867;51.198;11.966;2023-02-11T05:00:22;101946.56;;;4.82;81.62
32733;BME280;11867;51.198;11.966;2023-02-11T05:01:24;101938.22;;;4.71;81.86
32733;BME280;11867;51.198;11.966;2023-02-11T05:02:27;101937.19;;;4.72;81.65
32733;BME280;11867;51.198;11.966;2023-02-11T05:03:29;101936.09;;;4.59;82.26
32733;BME280;11867;51.198;11.966;2023-02-11T05:04:31;101930.91;;;4.64;81.81
32733;BME280;11867;51.198;11.966;2023-02-11T05:05:33;101940.88;;;4.57;82.92
32733;BME280;11867;51.198;11.966;2023-02-11T05:06:37;101946.66;;;4.48;83.00
32733;BME280;11867;51.198;11.966;2023-02-11T05:07:39;101932.06;;;4.42;83.64
32733;BME280;11867;51.198;11.966;2023-02-11T05:08:41;101946.59;;;4.34;84.23
32733;BME280;11867;51.198;11.966;2023-02-11T05:09:44;101942.25;;;4.40;84.48
32733;BME280;11867;51.198;11.966;2023-02-11T05:10:47;101944.56;;;4.43;84.21
32733;BME280;11867;51.198;11.966;2023-02-11T05:11:48;101914.75;;;4.30;84.10
32733;BME280;11867;51.198;11.966;2023-02-11T05:12:51;101937.28;;;4.43;84.04
32733;BME280;11867;51.198;11.966;2023-02-11T05:13:56;101946.19;;;4.44;83.93
32733;BME280;11867;51.198;11.966;2023-02-11T05:14:58;101936.63;;;4.35;84.37
32733;BME280;11867;51.198;11.966;2023-02-11T05:16:00;101943.25;;;4.32;84.97
32733;BME280;11867;51.198;11.966;2023-02-11T05:17:07;101953.19;;;4.32;85.34
32733;BME280;11867;51.198;11.966;2023-02-11T05:18:09;101933.25;;;4.26;85.49
32733;BME280;11867;51.198;11.966;2023-02-11T05:19:12;101954.25;;;4.31;85.31
32733;BME280;11867;51.198;11.966;2023-02-11T05:20:14;101933.84;;;4.21;85.55
32733;BME280;11867;51.198;11.966;2023-02-11T05:21:19;101945.50;;;4.22;85.56
32733;BME280;11867;51.198;11.966;2023-02-11T05:22:21;101934.25;;;4.18;85.81
32733;BME280;11867;51.198;11.966;2023-02-11T05:23:25;101945.25;;;4.23;85.68
32733;BME280;11867;51.198;11.966;2023-02-11T05:24:27;101935.31;;;4.24;85.79
32733;BME280;11867;51.198;11.966;2023-02-11T05:25:31;101929.84;;;4.17;86.06
32733;BME280;11867;51.198;11.966;2023-02-11T05:26:32;101951.31;;;4.25;86.03
32733;BME280;11867;51.198;11.966;2023-02-11T05:27:35;101948.38;;;4.20;86.40
32733;BME280;11867;51.198;11.966;2023-02-11T05:28:39;101942.72;;;4.15;86.28
32733;BME280;11867;51.198;11.966;2023-02-11T05:29:41;101950.31;;;4.33;85.95
32733;BME280;11867;51.198;11.966;2023-02-11T05:30:43;101949.03;;;4.29;86.17
32733;BME280;11867;51.198;11.966;2023-02-11T05:31:46;101940.13;;;4.29;85.94
32733;BME280;11867;51.198;11.966;2023-02-11T05:32:47;101925.72;;;4.21;86.11
32733;BME280;11867;51.198;11.966;2023-02-11T05:33:50;101959.88;;;4.36;86.11
32733;BME280;11867;51.198;11.966;2023-02-11T05:34:51;101955.09;;;4.38;86.02
32733;BME280;11867;51.198;11.966;2023-02-11T05:35:57;101958.69;;;4.45;85.98
32733;BME280;11867;51.198;11.966;2023-02-11T05:36:59;101956.22;;;4.50;86.23
32733;BME280;11867;51.198;11.966;2023-02-11T05:38:02;101954.38;;;4.57;85.48
32733;BME280;11867;51.198;11.966;2023-02-11T05:39:04;101963.78;;;4.68;85.20
32733;BME280;11867;51.198;11.966;2023-02-11T05:40:07;101959.63;;;4.65;85.02
32733;BME280;11867;51.198;11.966;2023-02-11T05:41:10;101952.34;;;4.66;84.90
32733;BME280;11867;51.198;11.966;2023-02-11T05:42:14;101950.41;;;4.53;85.11